sensor_id;sensor_type;location;lat;lon;timestamp;P1;durP1;ratioP1;P2;durP2;ratioP2
50102;SDS011;35993;52.604;10.078;2023-04-30T00:01:19;4.18;;;1.55;;
50102;SDS011;35993;52.604;10.078;2023-04-30T00:03:45;6.68;;;1.85;;
50102;SDS011;35993;52.604;10.078;2023-04-30T00:06:11;4.18;;;1.90;;
50102;SDS011;35993;52.604;10.078;2023-04-30T00:08:36;6.07;;;1.85;;
50102;SDS011;35993;52.604;10.078;2023-04-30T00:11:02;4.53;;;1.70;;
50102;SDS011;35993;52.604;10.078;2023-04-30T00:13:28;6.72;;;1.90;;
50102;SDS011;35993;52.604;10.078;2023-04-30T00:15:53;4.25;;;1.80;;
50102;SDS011;35993;52.604;10.078;2023-04-30T00:18:20;6.25;;;1.70;;
50102;SDS011;35993;52.604;10.078;2023-04-30T00:20:47;5.97;;;2.00;;
50102;SDS011;35993;52.604;10.078;2023-04-30T00:23:13;7.25;;;1.80;;
50102;SDS011;35993;52.604;10.078;2023-04-30T00:25:38;5.85;;;1.83;;
50102;SDS011;35993;52.604;10.078;2023-04-30T00:28:04;7.03;;;1.85;;
50102;SDS011;35993;52.604;10.078;2023-04-30T00:30:30;4.72;;;1.98;;
50102;SDS011;35993;52.604;10.078;2023-04-30T00:32:56;7.80;;;2.15;;
50102;SDS011;35993;52.604;10.078;2023-04-30T00:35:22;5.95;;;1.80;;
50102;SDS011;35993;52.604;10.078;2023-04-30T00:37:48;7.93;;;1.80;;
50102;SDS011;35993;52.604;10.078;2023-04-30T00:40:14;4.38;;;1.55;;
50102;SDS011;35993;52.604;10.078;2023-04-30T00:42:41;3.10;;;1.60;;
50102;SDS011;35993;52.604;10.078;2023-04-30T00:45:07;5.95;;;1.95;;
50102;SDS011;35993;52.604;10.078;2023-04-30T00:47:36;4.60;;;1.83;;
50102;SDS011;35993;52.604;10.078;2023-04-30T00:50:03;14.43;;;2.00;;
50102;SDS011;35993;52.604;10.078;2023-04-30T00:52:29;6.00;;;1.98;;
50102;SDS011;35993;52.604;10.078;2023-04-30T00:54:55;9.27;;;2.20;;
50102;SDS011;35993;52.604;10.078;2023-04-30T00:57:21;4.45;;;1.80;;
50102;SDS011;35993;52.604;10.078;2023-04-30T00:59:48;4.30;;;1.73;;
50102;SDS011;35993;52.604;10.078;2023-04-30T01:02:14;4.40;;;1.90;;
50102;SDS011;35993;52.604;10.078;2023-04-30T01:04:41;5.97;;;1.95;;
50102;SDS011;35993;52.604;10.078;2023-04-30T01:07:08;8.10;;;2.17;;
50102;SDS011;35993;52.604;10.078;2023-04-30T01:09:33;6.38;;;1.75;;
50102;SDS011;35993;52.604;10.078;2023-04-30T01:17:40;5.80;;;2.10;;
50102;SDS011;35993;52.604;10.078;2023-04-30T01:20:13;5.25;;;1.65;;
50102;SDS011;35993;52.604;10.078;2023-04-30T01:22:52;6.72;;;1.92;;
50102;SDS011;35993;52.604;10.078;2023-04-30T01:30:34;6.15;;;1.98;;
50102;SDS011;35993;52.604;10.078;2023-04-30T01:33:02;7.32;;;2.15;;
50102;SDS011;35993;52.604;10.078;2023-04-30T01:35:39;5.55;;;2.35;;
50102;SDS011;35993;52.604;10.078;2023-04-30T01:41:09;6.35;;;2.03;;
50102;SDS011;35993;52.604;10.078;2023-04-30T01:46:38;4.60;;;2.30;;
50102;SDS011;35993;52.604;10.078;2023-04-30T01:49:18;8.07;;;2.00;;
50102;SDS011;35993;52.604;10.078;2023-04-30T01:52:18;8.20;;;2.30;;
50102;SDS011;35993;52.604;10.078;2023-04-30T01:54:54;4.35;;;2.05;;
50102;SDS011;35993;52.604;10.078;2023-04-30T01:57:40;6.88;;;2.40;;
50102;SDS011;35993;52.604;10.078;2023-04-30T02:00:08;4.85;;;2.38;;
50102;SDS011;35993;52.604;10.078;2023-04-30T02:02:39;7.93;;;2.58;;
50102;SDS011;35993;52.604;10.078;2023-04-30T02:05:05;8.85;;;2.55;;
50102;SDS011;35993;52.604;10.078;2023-04-30T02:07:41;7.03;;;2.60;;
50102;SDS011;35993;52.604;10.078;2023-04-30T02:10:09;9.13;;;2.55;;
50102;SDS011;35993;52.604;10.078;2023-04-30T02:12:38;8.60;;;2.42;;
50102;SDS011;35993;52.604;10.078;2023-04-30T02:15:05;10.25;;;2.25;;
50102;SDS011;35993;52.604;10.078;2023-04-30T02:17:32;6.57;;;2.40;;
50102;SDS011;35993;52.604;10.078;2023-04-30T02:19:58;4.13;;;2.03;;
50102;SDS011;35993;52.604;10.078;2023-04-30T02:22:25;6.07;;;2.20;;
50102;SDS011;35993;52.604;10.078;2023-04-30T02:24:51;8.13;;;2.42;;
50102;SDS011;35993;52.604;10.078;2023-04-30T02:27:20;6.63;;;2.38;;
50102;SDS011;35993;52.604;10.078;2023-04-30T02:29:47;5.95;;;2.15;;
50102;SDS011;35993;52.604;10.078;2023-04-30T02:32:13;6.40;;;2.30;;
50102;SDS011;35993;52.604;10.078;2023-04-30T02:34:40;6.63;;;2.45;;
50102;SDS011;35993;52.604;10.078;2023-04-30T02:37:06;7.47;;;2.20;;
50102;SDS011;35993;52.604;10.078;2023-04-30T02:39:33;7.97;;;2.25;;
50102;SDS011;35993;52.604;10.078;2023-04-30T02:41:58;4.57;;;1.90;;
50102;SDS011;35993;52.604;10.078;2023-04-30T02:44:24;4.22;;;2.20;;
50102;SDS011;35993;52.604;10.078;2023-04-30T02:46:50;6.70;;;2.08;;
50102;SDS011;35993;52.604;10.078;2023-04-30T02:49:16;4.40;;;2.17;;
50102;SDS011;35993;52.604;10.078;2023-04-30T02:51:42;5.45;;;2.10;;
50102;SDS011;35993;52.604;10.078;2023-04-30T02:54:08;6.25;;;2.30;;
50102;SDS011;35993;52.604;10.078;2023-04-30T02:56:34;9.02;;;2.67;;
50102;SDS011;35993;52.604;10.078;2023-04-30T02:59:00;5.90;;;2.08;;
50102;SDS011;35993;52.604;10.078;2023-04-30T03:01:26;4.78;;;1.92;;
50102;SDS011;35993;52.604;10.078;2023-04-30T03:03:52;4.55;;;2.35;;
50102;SDS011;35993;52.604;10.078;2023-04-30T03:06:18;6.85;;;2.35;;
50102;SDS011;35993;52.604;10.078;2023-04-30T03:08:45;4.13;;;2.20;;
50102;SDS011;35993;52.604;10.078;2023-04-30T03:11:11;6.57;;;2.45;;
50102;SDS011;35993;52.604;10.078;2023-04-30T03:13:37;8.05;;;2.33;;
50102;SDS011;35993;52.604;10.078;2023-04-30T03:16:03;5.72;;;2.40;;
50102;SDS011;35993;52.604;10.078;2023-04-30T03:18:29;5.57;;;2.20;;
50102;SDS011;35993;52.604;10.078;2023-04-30T03:20:55;4.90;;;2.30;;
50102;SDS011;35993;52.604;10.078;2023-04-30T03:23:21;9.32;;;2.45;;
50102;SDS011;35993;52.604;10.078;2023-04-30T03:25:47;8.05;;;2.40;;
50102;SDS011;35993;52.604;10.078;2023-04-30T03:28:13;7.20;;;2.35;;
50102;SDS011;35993;52.604;10.078;2023-04-30T03:30:39;6.38;;;2.20;;
50102;SDS011;35993;52.604;10.078;2023-04-30T03:33:05;6.93;;;2.20;;
50102;SDS011;35993;52.604;10.078;2023-04-30T03:35:31;5.30;;;2.22;;
50102;SDS011;35993;52.604;10.078;2023-04-30T03:37:58;5.38;;;2.17;;
50102;SDS011;35993;52.604;10.078;2023-04-30T03:40:24;4.03;;;2.10;;
50102;SDS011;35993;52.604;10.078;2023-04-30T03:42:50;8.32;;;2.67;;
50102;SDS011;35993;52.604;10.078;2023-04-30T03:45:15;6.93;;;2.28;;
50102;SDS011;35993;52.604;10.078;2023-04-30T03:47:41;8.95;;;2.30;;
50102;SDS011;35993;52.604;10.078;2023-04-30T03:50:08;8.98;;;2.70;;
50102;SDS011;35993;52.604;10.078;2023-04-30T03:52:34;6.95;;;2.70;;
50102;SDS011;35993;52.604;10.078;2023-04-30T03:55:04;6.10;;;2.15;;
50102;SDS011;35993;52.604;10.078;2023-04-30T03:57:30;10.45;;;2.85;;
50102;SDS011;35993;52.604;10.078;2023-04-30T03:59:57;6.97;;;2.45;;
50102;SDS011;35993;52.604;10.078;2023-04-30T04:02:23;7.72;;;2.50;;
50102;SDS011;35993;52.604;10.078;2023-04-30T04:04:50;5.38;;;2.30;;
50102;SDS011;35993;52.604;10.078;2023-04-30T04:07:16;6.88;;;2.95;;
50102;SDS011;35993;52.604;10.078;2023-04-30T04:09:42;8.23;;;2.78;;
50102;SDS011;35993;52.604;10.078;2023-04-30T04:12:07;4.00;;;2.60;;
50102;SDS011;35993;52.604;10.078;2023-04-30T04:14:33;6.13;;;2.95;;
50102;SDS011;35993;52.604;10.078;2023-04-30T04:17:00;6.97;;;2.70;;
50102;SDS011;35993;52.604;10.078;2023-04-30T04:19:26;4.88;;;2.63;;
50102;SDS011;35993;52.604;10.078;2023-04-30T04:21:52;10.25;;;2.50;;
50102;SDS011;35993;52.604;10.078;2023-04-30T04:24:18;6.35;;;2.67;;
50102;SDS011;35993;52.604;10.078;2023-04-30T04:26:44;4.65;;;2.42;;
50102;SDS011;35993;52.604;10.078;2023-04-30T04:29:09;8.68;;;3.28;;
50102;SDS011;35993;52.604;10.078;2023-04-30T04:31:37;7.20;;;2.65;;
50102;SDS011;35993;52.604;10.078;2023-04-30T04:34:03;8.70;;;2.58;;
50102;SDS011;35993;52.604;10.078;2023-04-30T04:36:30;8.20;;;2.80;;
50102;SDS011;35993;52.604;10.078;2023-04-30T04:38:56;6.47;;;2.80;;
50102;SDS011;35993;52.604;10.078;2023-04-30T04:41:29;11.07;;;2.80;;
50102;SDS011;35993;52.604;10.078;2023-04-30T04:43:58;7.93;;;2.70;;
50102;SDS011;35993;52.604;10.078;2023-04-30T04:46:24;5.35;;;2.88;;
50102;SDS011;35993;52.604;10.078;2023-04-30T04:48:50;4.57;;;2.15;;
50102;SDS011;35993;52.604;10.078;2023-04-30T04:51:17;10.20;;;2.90;;
50102;SDS011;35993;52.604;10.078;2023-04-30T04:53:42;6.85;;;2.85;;
50102;SDS011;35993;52.604;10.078;2023-04-30T04:56:08;5.07;;;3.20;;
50102;SDS011;35993;52.604;10.078;2023-04-30T04:58:34;7.55;;;3.03;;
50102;SDS011;35993;52.604;10.078;2023-04-30T05:01:00;5.57;;;3.20;;
50102;SDS011;35993;52.604;10.078;2023-04-30T05:03:26;7.22;;;3.10;;
50102;SDS011;35993;52.604;10.078;2023-04-30T05:05:53;5.25;;;3.05;;
50102;SDS011;35993;52.604;10.078;2023-04-30T05:08:18;8.32;;;3.45;;
50102;SDS011;35993;52.604;10.078;2023-04-30T05:10:45;6.40;;;3.08;;
50102;SDS011;35993;52.604;10.078;2023-04-30T05:13:10;5.68;;;2.72;;
50102;SDS011;35993;52.604;10.078;2023-04-30T05:15:36;8.40;;;3.05;;
50102;SDS011;35993;52.604;10.078;2023-04-30T05:18:02;6.05;;;2.75;;
50102;SDS011;35993;52.604;10.078;2023-04-30T05:20:27;7.10;;;3.28;;
50102;SDS011;35993;52.604;10.078;2023-04-30T05:22:53;7.28;;;3.13;;
50102;SDS011;35993;52.604;10.078;2023-04-30T05:25:19;7.70;;;2.67;;
50102;SDS011;35993;52.604;10.078;2023-04-30T05:27:44;6.80;;;2.97;;
50102;SDS011;35993;52.604;10.078;2023-04-30T05:30:10;9.07;;;3.05;;
50102;SDS011;35993;52.604;10.078;2023-04-30T05:32:36;7.22;;;3.03;;
50102;SDS011;35993;52.604;10.078;2023-04-30T05:35:02;6.07;;;2.92;;
50102;SDS011;35993;52.604;10.078;2023-04-30T05:37:27;9.32;;;3.17;;
50102;SDS011;35993;52.604;10.078;2023-04-30T05:39:53;8.15;;;3.45;;
50102;SDS011;35993;52.604;10.078;2023-04-30T05:42:20;11.32;;;3.10;;
50102;SDS011;35993;52.604;10.078;2023-04-30T05:44:45;10.65;;;3.38;;
50102;SDS011;35993;52.604;10.078;2023-04-30T05:47:12;8.23;;;3.20;;
50102;SDS011;35993;52.604;10.078;2023-04-30T05:49:38;4.75;;;2.90;;
50102;SDS011;35993;52.604;10.078;2023-04-30T05:52:03;7.57;;;3.03;;
50102;SDS011;35993;52.604;10.078;2023-04-30T05:54:29;7.53;;;2.80;;
50102;SDS011;35993;52.604;10.078;2023-04-30T05:56:55;8.02;;;3.25;;
50102;SDS011;35993;52.604;10.078;2023-04-30T05:59:20;4.90;;;2.78;;
50102;SDS011;35993;52.604;10.078;2023-04-30T06:01:46;6.20;;;2.83;;
50102;SDS011;35993;52.604;10.078;2023-04-30T06:04:11;6.20;;;2.60;;
50102;SDS011;35993;52.604;10.078;2023-04-30T06:06:37;9.15;;;3.13;;
50102;SDS011;35993;52.604;10.078;2023-04-30T06:09:03;8.20;;;2.78;;
50102;SDS011;35993;52.604;10.078;2023-04-30T06:11:28;5.78;;;2.58;;
50102;SDS011;35993;52.604;10.078;2023-04-30T06:13:55;7.07;;;2.78;;
50102;SDS011;35993;52.604;10.078;2023-04-30T06:16:21;4.90;;;2.47;;
50102;SDS011;35993;52.604;10.078;2023-04-30T06:18:46;5.75;;;2.95;;
50102;SDS011;35993;52.604;10.078;2023-04-30T06:21:12;8.30;;;3.03;;
50102;SDS011;35993;52.604;10.078;2023-04-30T06:23:37;7.32;;;2.75;;
50102;SDS011;35993;52.604;10.078;2023-04-30T06:26:03;10.45;;;2.90;;
50102;SDS011;35993;52.604;10.078;2023-04-30T06:28:28;13.27;;;3.00;;
50102;SDS011;35993;52.604;10.078;2023-04-30T06:30:54;6.65;;;2.50;;
50102;SDS011;35993;52.604;10.078;2023-04-30T06:33:20;8.43;;;2.55;;
50102;SDS011;35993;52.604;10.078;2023-04-30T06:35:46;5.35;;;2.50;;
50102;SDS011;35993;52.604;10.078;2023-04-30T06:38:12;8.18;;;2.10;;
50102;SDS011;35993;52.604;10.078;2023-04-30T06:40:38;7.53;;;2.50;;
50102;SDS011;35993;52.604;10.078;2023-04-30T06:43:04;10.25;;;2.45;;
50102;SDS011;35993;52.604;10.078;2023-04-30T06:45:30;11.27;;;2.42;;
50102;SDS011;35993;52.604;10.078;2023-04-30T06:47:55;6.40;;;2.28;;
50102;SDS011;35993;52.604;10.078;2023-04-30T06:50:21;9.70;;;2.45;;
50102;SDS011;35993;52.604;10.078;2023-04-30T06:52:47;9.20;;;2.47;;
50102;SDS011;35993;52.604;10.078;2023-04-30T06:55:13;7.15;;;2.15;;
50102;SDS011;35993;52.604;10.078;2023-04-30T06:57:38;8.70;;;2.30;;
50102;SDS011;35993;52.604;10.078;2023-04-30T07:00:04;6.38;;;2.00;;
50102;SDS011;35993;52.604;10.078;2023-04-30T07:02:31;8.25;;;2.20;;
50102;SDS011;35993;52.604;10.078;2023-04-30T07:04:56;10.93;;;2.10;;
50102;SDS011;35993;52.604;10.078;2023-04-30T07:07:22;5.70;;;2.25;;
50102;SDS011;35993;52.604;10.078;2023-04-30T07:09:47;5.00;;;2.20;;
50102;SDS011;35993;52.604;10.078;2023-04-30T07:12:13;9.07;;;2.38;;
50102;SDS011;35993;52.604;10.078;2023-04-30T07:14:39;5.93;;;1.90;;
50102;SDS011;35993;52.604;10.078;2023-04-30T07:17:04;7.82;;;2.33;;
50102;SDS011;35993;52.604;10.078;2023-04-30T07:19:30;9.85;;;2.20;;
50102;SDS011;35993;52.604;10.078;2023-04-30T07:21:56;7.90;;;2.33;;
50102;SDS011;35993;52.604;10.078;2023-04-30T07:24:22;7.18;;;2.28;;
50102;SDS011;35993;52.604;10.078;2023-04-30T07:26:48;8.20;;;2.55;;
50102;SDS011;35993;52.604;10.078;2023-04-30T07:29:13;9.60;;;2.55;;
50102;SDS011;35993;52.604;10.078;2023-04-30T07:31:39;9.48;;;2.53;;
50102;SDS011;35993;52.604;10.078;2023-04-30T07:34:05;6.00;;;2.28;;
50102;SDS011;35993;52.604;10.078;2023-04-30T07:36:30;9.20;;;2.00;;
50102;SDS011;35993;52.604;10.078;2023-04-30T07:38:56;10.95;;;2.42;;
50102;SDS011;35993;52.604;10.078;2023-04-30T07:41:23;6.93;;;1.83;;
50102;SDS011;35993;52.604;10.078;2023-04-30T07:43:49;6.35;;;2.53;;
50102;SDS011;35993;52.604;10.078;2023-04-30T07:46:14;7.25;;;1.92;;
50102;SDS011;35993;52.604;10.078;2023-04-30T07:48:40;10.40;;;2.38;;
50102;SDS011;35993;52.604;10.078;2023-04-30T07:51:05;7.00;;;2.45;;
50102;SDS011;35993;52.604;10.078;2023-04-30T07:53:31;6.57;;;1.92;;
50102;SDS011;35993;52.604;10.078;2023-04-30T07:55:57;7.65;;;2.17;;
50102;SDS011;35993;52.604;10.078;2023-04-30T07:58:22;6.85;;;2.20;;
50102;SDS011;35993;52.604;10.078;2023-04-30T08:00:48;9.75;;;2.47;;
50102;SDS011;35993;52.604;10.078;2023-04-30T08:03:13;6.93;;;2.00;;
50102;SDS011;35993;52.604;10.078;2023-04-30T08:05:39;5.00;;;2.33;;
50102;SDS011;35993;52.604;10.078;2023-04-30T08:08:05;6.55;;;2.35;;
50102;SDS011;35993;52.604;10.078;2023-04-30T08:10:31;5.97;;;2.00;;
50102;SDS011;35993;52.604;10.078;2023-04-30T08:12:57;8.38;;;2.70;;
50102;SDS011;35993;52.604;10.078;2023-04-30T08:15:23;11.00;;;3.20;;
50102;SDS011;35993;52.604;10.078;2023-04-30T08:17:48;8.50;;;2.55;;
50102;SDS011;35993;52.604;10.078;2023-04-30T08:20:15;10.57;;;2.42;;
50102;SDS011;35993;52.604;10.078;2023-04-30T08:22:41;11.02;;;2.88;;
50102;SDS011;35993;52.604;10.078;2023-04-30T08:25:09;8.77;;;2.28;;
50102;SDS011;35993;52.604;10.078;2023-04-30T08:27:36;7.18;;;2.53;;
50102;SDS011;35993;52.604;10.078;2023-04-30T08:30:04;6.13;;;2.10;;
50102;SDS011;35993;52.604;10.078;2023-04-30T08:32:34;10.77;;;2.75;;
50102;SDS011;35993;52.604;10.078;2023-04-30T08:35:03;11.45;;;2.40;;
50102;SDS011;35993;52.604;10.078;2023-04-30T08:37:29;6.32;;;2.45;;
50102;SDS011;35993;52.604;10.078;2023-04-30T08:39:55;10.18;;;2.20;;
50102;SDS011;35993;52.604;10.078;2023-04-30T08:42:21;6.78;;;2.20;;
50102;SDS011;35993;52.604;10.078;2023-04-30T08:44:50;7.75;;;2.50;;
50102;SDS011;35993;52.604;10.078;2023-04-30T08:47:15;5.30;;;2.20;;
50102;SDS011;35993;52.604;10.078;2023-04-30T08:49:42;9.80;;;2.00;;
50102;SDS011;35993;52.604;10.078;2023-04-30T08:52:08;10.35;;;2.28;;
50102;SDS011;35993;52.604;10.078;2023-04-30T08:54:34;5.28;;;2.22;;
50102;SDS011;35993;52.604;10.078;2023-04-30T08:57:00;10.60;;;2.42;;
50102;SDS011;35993;52.604;10.078;2023-04-30T08:59:26;6.38;;;2.08;;
50102;SDS011;35993;52.604;10.078;2023-04-30T09:01:52;4.70;;;2.22;;
50102;SDS011;35993;52.604;10.078;2023-04-30T09:04:18;7.50;;;2.28;;
50102;SDS011;35993;52.604;10.078;2023-04-30T09:06:43;7.15;;;1.95;;
50102;SDS011;35993;52.604;10.078;2023-04-30T09:09:12;7.63;;;2.25;;
50102;SDS011;35993;52.604;10.078;2023-04-30T09:11:39;5.88;;;2.10;;
50102;SDS011;35993;52.604;10.078;2023-04-30T09:14:06;6.10;;;2.30;;
50102;SDS011;35993;52.604;10.078;2023-04-30T09:16:48;6.88;;;2.30;;
50102;SDS011;35993;52.604;10.078;2023-04-30T09:19:22;7.35;;;2.50;;
50102;SDS011;35993;52.604;10.078;2023-04-30T09:21:49;9.20;;;2.33;;
50102;SDS011;35993;52.604;10.078;2023-04-30T09:24:15;7.05;;;2.00;;
50102;SDS011;35993;52.604;10.078;2023-04-30T09:26:41;9.85;;;2.00;;
50102;SDS011;35993;52.604;10.078;2023-04-30T09:29:07;7.25;;;2.53;;
50102;SDS011;35993;52.604;10.078;2023-04-30T09:31:38;6.53;;;2.10;;
50102;SDS011;35993;52.604;10.078;2023-04-30T09:34:07;7.70;;;2.25;;
50102;SDS011;35993;52.604;10.078;2023-04-30T09:36:32;6.15;;;2.22;;
50102;SDS011;35993;52.604;10.078;2023-04-30T09:39:05;5.03;;;2.00;;
50102;SDS011;35993;52.604;10.078;2023-04-30T09:41:42;6.38;;;1.80;;
50102;SDS011;35993;52.604;10.078;2023-04-30T09:44:08;5.55;;;1.90;;
50102;SDS011;35993;52.604;10.078;2023-04-30T09:46:50;7.47;;;2.30;;
50102;SDS011;35993;52.604;10.078;2023-04-30T09:49:16;7.75;;;2.00;;
50102;SDS011;35993;52.604;10.078;2023-04-30T09:51:53;8.10;;;2.50;;
50102;SDS011;35993;52.604;10.078;2023-04-30T09:54:21;9.73;;;2.42;;
50102;SDS011;35993;52.604;10.078;2023-04-30T09:56:55;7.78;;;2.50;;
50102;SDS011;35993;52.604;10.078;2023-04-30T09:59:23;8.15;;;1.98;;
50102;SDS011;35993;52.604;10.078;2023-04-30T10:01:59;5.32;;;1.92;;
50102;SDS011;35993;52.604;10.078;2023-04-30T10:04:27;4.65;;;2.03;;
50102;SDS011;35993;52.604;10.078;2023-04-30T10:06:56;8.75;;;2.22;;
50102;SDS011;35993;52.604;10.078;2023-04-30T10:09:28;5.53;;;2.00;;
50102;SDS011;35993;52.604;10.078;2023-04-30T10:12:01;8.43;;;2.05;;
50102;SDS011;35993;52.604;10.078;2023-04-30T10:14:29;4.07;;;2.10;;
50102;SDS011;35993;52.604;10.078;2023-04-30T10:17:02;3.65;;;1.88;;
50102;SDS011;35993;52.604;10.078;2023-04-30T10:19:36;5.25;;;2.00;;
50102;SDS011;35993;52.604;10.078;2023-04-30T10:22:07;9.32;;;2.47;;
50102;SDS011;35993;52.604;10.078;2023-04-30T10:24:33;7.80;;;1.98;;
50102;SDS011;35993;52.604;10.078;2023-04-30T10:26:59;6.50;;;2.00;;
50102;SDS011;35993;52.604;10.078;2023-04-30T10:29:25;6.80;;;1.92;;
50102;SDS011;35993;52.604;10.078;2023-04-30T10:31:50;5.60;;;2.45;;
50102;SDS011;35993;52.604;10.078;2023-04-30T10:34:34;10.35;;;3.05;;
50102;SDS011;35993;52.604;10.078;2023-04-30T10:37:20;6.32;;;2.08;;
50102;SDS011;35993;52.604;10.078;2023-04-30T10:39:52;8.45;;;3.22;;
50102;SDS011;35993;52.604;10.078;2023-04-30T10:42:18;6.72;;;2.20;;
50102;SDS011;35993;52.604;10.078;2023-04-30T10:44:44;7.45;;;2.10;;
50102;SDS011;35993;52.604;10.078;2023-04-30T10:47:09;4.93;;;2.03;;
50102;SDS011;35993;52.604;10.078;2023-04-30T10:49:36;5.75;;;1.83;;
50102;SDS011;35993;52.604;10.078;2023-04-30T10:52:02;4.45;;;2.00;;
50102;SDS011;35993;52.604;10.078;2023-04-30T10:54:30;5.20;;;1.80;;
50102;SDS011;35993;52.604;10.078;2023-04-30T10:57:13;5.47;;;2.15;;
50102;SDS011;35993;52.604;10.078;2023-04-30T10:59:43;5.25;;;1.92;;
50102;SDS011;35993;52.604;10.078;2023-04-30T11:02:15;6.60;;;2.10;;
50102;SDS011;35993;52.604;10.078;2023-04-30T11:07:36;4.93;;;2.13;;
50102;SDS011;35993;52.604;10.078;2023-04-30T11:10:02;6.10;;;2.03;;
50102;SDS011;35993;52.604;10.078;2023-04-30T11:12:28;5.60;;;2.03;;
50102;SDS011;35993;52.604;10.078;2023-04-30T11:15:04;6.95;;;2.08;;
50102;SDS011;35993;52.604;10.078;2023-04-30T11:17:31;6.80;;;1.95;;
50102;SDS011;35993;52.604;10.078;2023-04-30T11:19:59;7.80;;;2.42;;
50102;SDS011;35993;52.604;10.078;2023-04-30T11:22:26;5.32;;;2.05;;
50102;SDS011;35993;52.604;10.078;2023-04-30T11:27:34;8.43;;;2.10;;
50102;SDS011;35993;52.604;10.078;2023-04-30T11:30:01;5.07;;;2.05;;
50102;SDS011;35993;52.604;10.078;2023-04-30T11:32:33;7.93;;;2.20;;
50102;SDS011;35993;52.604;10.078;2023-04-30T11:35:00;5.40;;;1.75;;
50102;SDS011;35993;52.604;10.078;2023-04-30T11:37:37;4.30;;;1.95;;
50102;SDS011;35993;52.604;10.078;2023-04-30T11:40:05;5.03;;;1.88;;
50102;SDS011;35993;52.604;10.078;2023-04-30T11:42:32;7.53;;;2.40;;
50102;SDS011;35993;52.604;10.078;2023-04-30T11:45:04;5.25;;;2.42;;
50102;SDS011;35993;52.604;10.078;2023-04-30T11:47:44;5.88;;;1.90;;
50102;SDS011;35993;52.604;10.078;2023-04-30T11:50:12;5.35;;;1.90;;
50102;SDS011;35993;52.604;10.078;2023-04-30T11:52:39;5.47;;;2.10;;
50102;SDS011;35993;52.604;10.078;2023-04-30T11:55:12;5.57;;;1.70;;
50102;SDS011;35993;52.604;10.078;2023-04-30T11:57:40;4.07;;;2.05;;
50102;SDS011;35993;52.604;10.078;2023-04-30T12:00:10;5.47;;;2.05;;
50102;SDS011;35993;52.604;10.078;2023-04-30T12:02:39;7.22;;;2.05;;
50102;SDS011;35993;52.604;10.078;2023-04-30T12:05:19;5.22;;;2.10;;
50102;SDS011;35993;52.604;10.078;2023-04-30T12:07:46;4.95;;;2.10;;
50102;SDS011;35993;52.604;10.078;2023-04-30T12:10:14;5.35;;;1.90;;
50102;SDS011;35993;52.604;10.078;2023-04-30T12:12:41;7.13;;;2.05;;
50102;SDS011;35993;52.604;10.078;2023-04-30T12:15:12;7.13;;;2.03;;
50102;SDS011;35993;52.604;10.078;2023-04-30T12:17:38;7.07;;;2.47;;
50102;SDS011;35993;52.604;10.078;2023-04-30T12:20:05;5.30;;;1.98;;
50102;SDS011;35993;52.604;10.078;2023-04-30T12:22:32;4.53;;;1.70;;
50102;SDS011;35993;52.604;10.078;2023-04-30T12:24:58;3.85;;;1.70;;
50102;SDS011;35993;52.604;10.078;2023-04-30T12:27:25;4.45;;;1.85;;
50102;SDS011;35993;52.604;10.078;2023-04-30T12:29:51;6.22;;;1.90;;
50102;SDS011;35993;52.604;10.078;2023-04-30T12:32:22;3.88;;;2.10;;
50102;SDS011;35993;52.604;10.078;2023-04-30T12:34:47;4.78;;;1.80;;
50102;SDS011;35993;52.604;10.078;2023-04-30T12:37:14;4.45;;;1.80;;
50102;SDS011;35993;52.604;10.078;2023-04-30T12:39:40;4.22;;;2.30;;
50102;SDS011;35993;52.604;10.078;2023-04-30T12:42:06;6.78;;;2.13;;
50102;SDS011;35993;52.604;10.078;2023-04-30T12:44:32;6.55;;;2.13;;
50102;SDS011;35993;52.604;10.078;2023-04-30T12:47:07;5.20;;;1.73;;
50102;SDS011;35993;52.604;10.078;2023-04-30T12:49:34;7.47;;;2.10;;
50102;SDS011;35993;52.604;10.078;2023-04-30T12:52:04;7.03;;;2.10;;
50102;SDS011;35993;52.604;10.078;2023-04-30T12:54:32;7.43;;;1.80;;
50102;SDS011;35993;52.604;10.078;2023-04-30T12:57:01;6.00;;;1.80;;
50102;SDS011;35993;52.604;10.078;2023-04-30T12:59:32;4.47;;;1.90;;
50102;SDS011;35993;52.604;10.078;2023-04-30T13:02:09;4.72;;;1.88;;
50102;SDS011;35993;52.604;10.078;2023-04-30T13:04:39;5.95;;;2.00;;
50102;SDS011;35993;52.604;10.078;2023-04-30T13:07:06;4.90;;;1.83;;
50102;SDS011;35993;52.604;10.078;2023-04-30T13:09:32;4.97;;;1.90;;
50102;SDS011;35993;52.604;10.078;2023-04-30T13:11:58;3.25;;;1.75;;
50102;SDS011;35993;52.604;10.078;2023-04-30T13:14:24;6.15;;;1.75;;
50102;SDS011;35993;52.604;10.078;2023-04-30T13:16:49;4.00;;;2.00;;
50102;SDS011;35993;52.604;10.078;2023-04-30T13:19:15;4.40;;;1.70;;
50102;SDS011;35993;52.604;10.078;2023-04-30T13:21:40;5.50;;;1.90;;
50102;SDS011;35993;52.604;10.078;2023-04-30T13:24:06;4.68;;;2.10;;
50102;SDS011;35993;52.604;10.078;2023-04-30T13:26:31;4.05;;;1.73;;
50102;SDS011;35993;52.604;10.078;2023-04-30T13:28:57;5.18;;;2.20;;
50102;SDS011;35993;52.604;10.078;2023-04-30T13:31:22;5.70;;;1.83;;
50102;SDS011;35993;52.604;10.078;2023-04-30T13:33:48;4.40;;;1.67;;
50102;SDS011;35993;52.604;10.078;2023-04-30T13:36:19;4.57;;;1.80;;
50102;SDS011;35993;52.604;10.078;2023-04-30T13:38:45;4.07;;;1.70;;
50102;SDS011;35993;52.604;10.078;2023-04-30T13:41:10;4.80;;;1.63;;
50102;SDS011;35993;52.604;10.078;2023-04-30T13:43:36;3.95;;;1.75;;
50102;SDS011;35993;52.604;10.078;2023-04-30T13:46:08;4.38;;;1.70;;
50102;SDS011;35993;52.604;10.078;2023-04-30T13:48:34;4.40;;;1.77;;
50102;SDS011;35993;52.604;10.078;2023-04-30T13:51:00;4.95;;;1.60;;
50102;SDS011;35993;52.604;10.078;2023-04-30T13:53:26;4.05;;;1.60;;
50102;SDS011;35993;52.604;10.078;2023-04-30T13:55:51;4.60;;;1.70;;
50102;SDS011;35993;52.604;10.078;2023-04-30T13:58:17;4.78;;;1.85;;
50102;SDS011;35993;52.604;10.078;2023-04-30T14:00:43;6.15;;;1.80;;
50102;SDS011;35993;52.604;10.078;2023-04-30T14:03:09;4.65;;;1.90;;
50102;SDS011;35993;52.604;10.078;2023-04-30T14:05:35;4.55;;;1.77;;
50102;SDS011;35993;52.604;10.078;2023-04-30T14:08:01;4.68;;;1.70;;
50102;SDS011;35993;52.604;10.078;2023-04-30T14:10:27;4.13;;;1.40;;
50102;SDS011;35993;52.604;10.078;2023-04-30T14:12:53;5.07;;;1.60;;
50102;SDS011;35993;52.604;10.078;2023-04-30T14:15:18;4.70;;;1.60;;
50102;SDS011;35993;52.604;10.078;2023-04-30T14:17:45;3.47;;;1.70;;
50102;SDS011;35993;52.604;10.078;2023-04-30T14:20:11;4.75;;;1.73;;
50102;SDS011;35993;52.604;10.078;2023-04-30T14:22:37;3.33;;;1.70;;
50102;SDS011;35993;52.604;10.078;2023-04-30T14:25:03;3.88;;;1.52;;
50102;SDS011;35993;52.604;10.078;2023-04-30T14:27:29;6.18;;;1.80;;
50102;SDS011;35993;52.604;10.078;2023-04-30T14:29:55;6.68;;;1.73;;
50102;SDS011;35993;52.604;10.078;2023-04-30T14:32:23;6.32;;;1.80;;
50102;SDS011;35993;52.604;10.078;2023-04-30T14:34:50;3.30;;;1.55;;
50102;SDS011;35993;52.604;10.078;2023-04-30T14:37:15;4.82;;;1.88;;
50102;SDS011;35993;52.604;10.078;2023-04-30T14:39:41;4.20;;;1.95;;
50102;SDS011;35993;52.604;10.078;2023-04-30T14:42:08;4.10;;;1.77;;
50102;SDS011;35993;52.604;10.078;2023-04-30T14:44:36;6.03;;;1.88;;
50102;SDS011;35993;52.604;10.078;2023-04-30T14:47:02;8.40;;;2.22;;
50102;SDS011;35993;52.604;10.078;2023-04-30T14:49:28;6.80;;;2.10;;
50102;SDS011;35993;52.604;10.078;2023-04-30T14:51:54;10.45;;;2.50;;
50102;SDS011;35993;52.604;10.078;2023-04-30T14:54:19;5.10;;;2.03;;
50102;SDS011;35993;52.604;10.078;2023-04-30T14:56:45;7.22;;;2.00;;